sensor_id;sensor_type;location;lat;lon;timestamp;P1;durP1;ratioP1;P2;durP2;ratioP2
62654;SDS011;48717;55.556;37.816;2023-06-26T00:02:00;16.95;;;11.57;;
62654;SDS011;48717;55.556;37.816;2023-06-26T00:04:33;16.88;;;11.30;;
62654;SDS011;48717;55.556;37.816;2023-06-26T00:07:02;17.88;;;11.48;;
62654;SDS011;48717;55.556;37.816;2023-06-26T00:09:30;16.58;;;11.30;;
62654;SDS011;48717;55.556;37.816;2023-06-26T00:11:58;23.02;;;11.43;;
62654;SDS011;48717;55.556;37.816;2023-06-26T00:14:26;19.33;;;13.10;;
62654;SDS011;48717;55.556;37.816;2023-06-26T00:16:53;16.20;;;11.38;;
62654;SDS011;48717;55.556;37.816;2023-06-26T00:19:20;15.60;;;11.13;;
62654;SDS011;48717;55.556;37.816;2023-06-26T00:21:47;19.15;;;12.15;;
62654;SDS011;48717;55.556;37.816;2023-06-26T00:24:14;20.00;;;12.57;;
62654;SDS011;48717;55.556;37.816;2023-06-26T00:26:42;19.08;;;12.90;;
62654;SDS011;48717;55.556;37.816;2023-06-26T00:29:09;19.02;;;12.88;;
62654;SDS011;48717;55.556;37.816;2023-06-26T00:31:36;20.20;;;12.88;;
62654;SDS011;48717;55.556;37.816;2023-06-26T00:34:05;27.20;;;13.43;;
62654;SDS011;48717;55.556;37.816;2023-06-26T00:36:33;20.77;;;12.25;;
62654;SDS011;48717;55.556;37.816;2023-06-26T00:39:00;20.58;;;12.75;;
62654;SDS011;48717;55.556;37.816;2023-06-26T00:41:28;23.50;;;13.45;;
62654;SDS011;48717;55.556;37.816;2023-06-26T00:43:55;31.58;;;13.45;;
62654;SDS011;48717;55.556;37.816;2023-06-26T00:46:22;31.95;;;14.20;;
62654;SDS011;48717;55.556;37.816;2023-06-26T00:48:51;34.10;;;14.25;;
62654;SDS011;48717;55.556;37.816;2023-06-26T00:51:19;38.60;;;13.75;;
62654;SDS011;48717;55.556;37.816;2023-06-26T00:53:47;31.75;;;13.75;;
62654;SDS011;48717;55.556;37.816;2023-06-26T00:56:17;31.15;;;13.95;;
62654;SDS011;48717;55.556;37.816;2023-06-26T00:58:45;30.55;;;14.77;;
62654;SDS011;48717;55.556;37.816;2023-06-26T01:01:13;28.75;;;14.13;;
62654;SDS011;48717;55.556;37.816;2023-06-26T01:03:44;29.95;;;14.45;;
62654;SDS011;48717;55.556;37.816;2023-06-26T01:06:13;27.13;;;14.90;;
62654;SDS011;48717;55.556;37.816;2023-06-26T01:08:42;26.30;;;15.25;;
62654;SDS011;48717;55.556;37.816;2023-06-26T01:11:11;25.13;;;13.80;;
62654;SDS011;48717;55.556;37.816;2023-06-26T01:13:39;26.05;;;14.35;;
62654;SDS011;48717;55.556;37.816;2023-06-26T01:16:08;26.10;;;13.77;;
62654;SDS011;48717;55.556;37.816;2023-06-26T01:18:38;25.33;;;13.45;;
62654;SDS011;48717;55.556;37.816;2023-06-26T01:21:12;26.15;;;14.05;;
62654;SDS011;48717;55.556;37.816;2023-06-26T01:26:49;26.48;;;13.52;;
62654;SDS011;48717;55.556;37.816;2023-06-26T01:29:18;29.23;;;13.90;;
62654;SDS011;48717;55.556;37.816;2023-06-26T01:31:47;29.60;;;13.77;;
62654;SDS011;48717;55.556;37.816;2023-06-26T01:34:16;33.28;;;14.63;;
62654;SDS011;48717;55.556;37.816;2023-06-26T01:36:45;26.95;;;14.45;;
62654;SDS011;48717;55.556;37.816;2023-06-26T01:39:15;25.67;;;14.57;;
62654;SDS011;48717;55.556;37.816;2023-06-26T01:41:43;24.98;;;14.70;;
62654;SDS011;48717;55.556;37.816;2023-06-26T01:44:25;51.50;;;15.95;;
62654;SDS011;48717;55.556;37.816;2023-06-26T01:52:41;56.30;;;17.75;;
62654;SDS011;48717;55.556;37.816;2023-06-26T01:57:31;68.13;;;18.45;;
62654;SDS011;48717;55.556;37.816;2023-06-26T02:00:00;63.15;;;18.60;;
62654;SDS011;48717;55.556;37.816;2023-06-26T02:02:40;53.97;;;17.10;;
62654;SDS011;48717;55.556;37.816;2023-06-26T02:05:12;49.30;;;15.63;;
62654;SDS011;48717;55.556;37.816;2023-06-26T02:07:40;45.55;;;17.27;;
62654;SDS011;48717;55.556;37.816;2023-06-26T02:10:08;49.78;;;16.80;;
62654;SDS011;48717;55.556;37.816;2023-06-26T02:12:36;40.97;;;16.65;;
62654;SDS011;48717;55.556;37.816;2023-06-26T02:15:04;48.10;;;17.33;;
62654;SDS011;48717;55.556;37.816;2023-06-26T02:17:33;44.40;;;16.90;;
62654;SDS011;48717;55.556;37.816;2023-06-26T02:20:01;48.35;;;16.52;;
62654;SDS011;48717;55.556;37.816;2023-06-26T02:22:32;47.65;;;16.98;;
62654;SDS011;48717;55.556;37.816;2023-06-26T02:24:59;41.70;;;16.60;;
62654;SDS011;48717;55.556;37.816;2023-06-26T02:27:28;42.28;;;16.33;;
62654;SDS011;48717;55.556;37.816;2023-06-26T02:29:55;37.78;;;16.42;;
62654;SDS011;48717;55.556;37.816;2023-06-26T02:32:22;38.70;;;15.88;;
62654;SDS011;48717;55.556;37.816;2023-06-26T02:34:50;42.75;;;17.77;;
62654;SDS011;48717;55.556;37.816;2023-06-26T02:37:20;43.85;;;17.35;;
62654;SDS011;48717;55.556;37.816;2023-06-26T02:39:47;43.92;;;15.60;;
62654;SDS011;48717;55.556;37.816;2023-06-26T02:42:14;41.22;;;15.65;;
62654;SDS011;48717;55.556;37.816;2023-06-26T02:44:42;49.88;;;17.13;;
62654;SDS011;48717;55.556;37.816;2023-06-26T02:47:09;41.28;;;16.90;;
62654;SDS011;48717;55.556;37.816;2023-06-26T02:49:40;39.83;;;16.70;;
62654;SDS011;48717;55.556;37.816;2023-06-26T02:52:08;32.22;;;16.15;;
62654;SDS011;48717;55.556;37.816;2023-06-26T02:54:35;36.17;;;18.00;;
62654;SDS011;48717;55.556;37.816;2023-06-26T02:57:04;28.50;;;16.02;;
62654;SDS011;48717;55.556;37.816;2023-06-26T02:59:32;57.92;;;27.98;;
62654;SDS011;48717;55.556;37.816;2023-06-26T03:01:59;43.25;;;16.08;;
62654;SDS011;48717;55.556;37.816;2023-06-26T03:04:35;40.30;;;15.50;;
62654;SDS011;48717;55.556;37.816;2023-06-26T03:07:05;40.90;;;17.48;;
62654;SDS011;48717;55.556;37.816;2023-06-26T03:09:33;54.00;;;18.58;;
62654;SDS011;48717;55.556;37.816;2023-06-26T03:12:01;56.97;;;25.88;;
62654;SDS011;48717;55.556;37.816;2023-06-26T03:14:28;54.35;;;22.88;;
62654;SDS011;48717;55.556;37.816;2023-06-26T03:16:56;59.72;;;27.63;;
62654;SDS011;48717;55.556;37.816;2023-06-26T03:19:27;41.15;;;19.08;;
62654;SDS011;48717;55.556;37.816;2023-06-26T03:22:14;35.10;;;19.52;;
62654;SDS011;48717;55.556;37.816;2023-06-26T03:24:41;37.55;;;18.92;;
62654;SDS011;48717;55.556;37.816;2023-06-26T03:27:10;46.67;;;21.42;;
62654;SDS011;48717;55.556;37.816;2023-06-26T03:29:38;32.03;;;19.05;;
62654;SDS011;48717;55.556;37.816;2023-06-26T03:32:07;41.45;;;21.85;;
62654;SDS011;48717;55.556;37.816;2023-06-26T03:34:35;37.15;;;20.52;;
62654;SDS011;48717;55.556;37.816;2023-06-26T03:37:05;39.67;;;21.10;;
62654;SDS011;48717;55.556;37.816;2023-06-26T03:39:32;43.65;;;25.55;;
62654;SDS011;48717;55.556;37.816;2023-06-26T03:42:00;58.28;;;29.45;;
62654;SDS011;48717;55.556;37.816;2023-06-26T03:44:28;43.65;;;24.88;;
62654;SDS011;48717;55.556;37.816;2023-06-26T03:46:55;55.72;;;30.05;;
62654;SDS011;48717;55.556;37.816;2023-06-26T03:49:23;34.08;;;20.88;;
62654;SDS011;48717;55.556;37.816;2023-06-26T03:51:51;40.60;;;21.00;;
62654;SDS011;48717;55.556;37.816;2023-06-26T03:54:18;40.92;;;24.15;;
62654;SDS011;48717;55.556;37.816;2023-06-26T03:56:45;33.22;;;19.02;;
62654;SDS011;48717;55.556;37.816;2023-06-26T03:59:13;34.45;;;20.42;;
62654;SDS011;48717;55.556;37.816;2023-06-26T04:01:40;26.15;;;19.65;;
62654;SDS011;48717;55.556;37.816;2023-06-26T04:04:07;47.92;;;26.73;;
62654;SDS011;48717;55.556;37.816;2023-06-26T04:06:34;33.38;;;20.05;;
62654;SDS011;48717;55.556;37.816;2023-06-26T04:09:01;36.00;;;23.27;;
62654;SDS011;48717;55.556;37.816;2023-06-26T04:11:29;45.17;;;25.60;;
62654;SDS011;48717;55.556;37.816;2023-06-26T04:13:56;41.55;;;22.73;;
62654;SDS011;48717;55.556;37.816;2023-06-26T04:16:24;34.25;;;21.25;;
62654;SDS011;48717;55.556;37.816;2023-06-26T04:18:52;34.38;;;19.90;;
62654;SDS011;48717;55.556;37.816;2023-06-26T04:21:20;60.17;;;31.30;;
62654;SDS011;48717;55.556;37.816;2023-06-26T04:23:47;58.25;;;31.60;;
62654;SDS011;48717;55.556;37.816;2023-06-26T04:26:14;38.33;;;21.02;;
62654;SDS011;48717;55.556;37.816;2023-06-26T04:28:42;36.17;;;22.80;;
62654;SDS011;48717;55.556;37.816;2023-06-26T04:31:10;58.13;;;32.33;;
62654;SDS011;48717;55.556;37.816;2023-06-26T04:33:37;36.28;;;21.20;;
62654;SDS011;48717;55.556;37.816;2023-06-26T04:36:08;30.45;;;18.95;;
62654;SDS011;48717;55.556;37.816;2023-06-26T04:38:35;31.45;;;17.80;;
62654;SDS011;48717;55.556;37.816;2023-06-26T04:41:02;30.17;;;17.92;;
62654;SDS011;48717;55.556;37.816;2023-06-26T04:43:31;30.23;;;16.50;;
62654;SDS011;48717;55.556;37.816;2023-06-26T04:45:58;23.90;;;16.63;;
62654;SDS011;48717;55.556;37.816;2023-06-26T04:48:25;26.98;;;15.57;;
62654;SDS011;48717;55.556;37.816;2023-06-26T04:50:55;21.45;;;14.15;;
62654;SDS011;48717;55.556;37.816;2023-06-26T04:53:23;22.88;;;13.77;;
62654;SDS011;48717;55.556;37.816;2023-06-26T04:55:51;17.10;;;12.48;;
62654;SDS011;48717;55.556;37.816;2023-06-26T04:58:19;17.92;;;11.20;;
62654;SDS011;48717;55.556;37.816;2023-06-26T05:00:47;16.50;;;11.45;;
62654;SDS011;48717;55.556;37.816;2023-06-26T05:03:16;17.80;;;11.63;;
62654;SDS011;48717;55.556;37.816;2023-06-26T05:05:44;15.23;;;11.30;;
62654;SDS011;48717;55.556;37.816;2023-06-26T05:08:13;18.30;;;10.90;;
62654;SDS011;48717;55.556;37.816;2023-06-26T05:10:48;19.25;;;11.15;;
62654;SDS011;48717;55.556;37.816;2023-06-26T05:13:16;14.60;;;11.00;;
62654;SDS011;48717;55.556;37.816;2023-06-26T05:15:44;13.10;;;10.52;;
62654;SDS011;48717;55.556;37.816;2023-06-26T05:18:12;15.77;;;10.95;;
62654;SDS011;48717;55.556;37.816;2023-06-26T05:20:39;15.13;;;10.90;;
62654;SDS011;48717;55.556;37.816;2023-06-26T05:23:07;16.30;;;10.73;;
62654;SDS011;48717;55.556;37.816;2023-06-26T05:25:34;15.40;;;10.80;;
62654;SDS011;48717;55.556;37.816;2023-06-26T05:28:02;14.38;;;10.95;;
62654;SDS011;48717;55.556;37.816;2023-06-26T05:30:32;17.58;;;10.10;;
62654;SDS011;48717;55.556;37.816;2023-06-26T05:33:02;15.30;;;9.25;;
62654;SDS011;48717;55.556;37.816;2023-06-26T05:35:30;20.05;;;10.30;;
62654;SDS011;48717;55.556;37.816;2023-06-26T05:37:58;14.13;;;8.95;;
62654;SDS011;48717;55.556;37.816;2023-06-26T05:40:25;10.10;;;8.70;;
62654;SDS011;48717;55.556;37.816;2023-06-26T05:42:53;12.07;;;8.80;;
62654;SDS011;48717;55.556;37.816;2023-06-26T05:45:20;14.55;;;9.00;;
62654;SDS011;48717;55.556;37.816;2023-06-26T05:47:47;14.85;;;9.60;;
62654;SDS011;48717;55.556;37.816;2023-06-26T05:50:17;12.50;;;9.23;;
62654;SDS011;48717;55.556;37.816;2023-06-26T05:52:44;14.63;;;9.50;;
62654;SDS011;48717;55.556;37.816;2023-06-26T05:55:12;12.85;;;9.50;;
62654;SDS011;48717;55.556;37.816;2023-06-26T05:57:40;14.75;;;9.43;;
62654;SDS011;48717;55.556;37.816;2023-06-26T06:00:07;13.93;;;9.10;;
62654;SDS011;48717;55.556;37.816;2023-06-26T06:02:42;13.98;;;11.00;;
62654;SDS011;48717;55.556;37.816;2023-06-26T06:05:09;12.23;;;9.38;;
62654;SDS011;48717;55.556;37.816;2023-06-26T06:07:37;10.52;;;8.18;;
62654;SDS011;48717;55.556;37.816;2023-06-26T06:10:04;13.43;;;8.82;;
62654;SDS011;48717;55.556;37.816;2023-06-26T06:12:32;14.75;;;9.30;;
62654;SDS011;48717;55.556;37.816;2023-06-26T06:14:59;10.65;;;8.40;;
62654;SDS011;48717;55.556;37.816;2023-06-26T06:17:27;15.50;;;7.80;;
62654;SDS011;48717;55.556;37.816;2023-06-26T06:19:55;14.77;;;7.75;;
62654;SDS011;48717;55.556;37.816;2023-06-26T06:22:23;7.03;;;6.10;;
62654;SDS011;48717;55.556;37.816;2023-06-26T06:24:50;9.13;;;6.75;;
62654;SDS011;48717;55.556;37.816;2023-06-26T06:27:18;11.93;;;6.45;;
62654;SDS011;48717;55.556;37.816;2023-06-26T06:29:45;9.80;;;6.60;;
62654;SDS011;48717;55.556;37.816;2023-06-26T06:32:12;10.05;;;6.10;;
62654;SDS011;48717;55.556;37.816;2023-06-26T06:34:40;6.88;;;6.18;;
62654;SDS011;48717;55.556;37.816;2023-06-26T06:37:07;20.88;;;5.80;;
62654;SDS011;48717;55.556;37.816;2023-06-26T06:39:35;6.70;;;6.00;;
62654;SDS011;48717;55.556;37.816;2023-06-26T06:42:02;10.45;;;6.57;;
62654;SDS011;48717;55.556;37.816;2023-06-26T06:44:30;10.50;;;6.25;;
62654;SDS011;48717;55.556;37.816;2023-06-26T06:47:00;17.90;;;5.78;;
62654;SDS011;48717;55.556;37.816;2023-06-26T06:49:27;7.68;;;5.90;;
62654;SDS011;48717;55.556;37.816;2023-06-26T06:51:54;7.88;;;5.45;;
62654;SDS011;48717;55.556;37.816;2023-06-26T06:54:21;6.95;;;6.25;;
62654;SDS011;48717;55.556;37.816;2023-06-26T06:56:48;6.68;;;5.93;;
62654;SDS011;48717;55.556;37.816;2023-06-26T06:59:16;7.80;;;5.55;;
62654;SDS011;48717;55.556;37.816;2023-06-26T07:01:43;8.80;;;5.90;;
62654;SDS011;48717;55.556;37.816;2023-06-26T07:04:10;9.63;;;6.03;;
62654;SDS011;48717;55.556;37.816;2023-06-26T07:06:37;6.35;;;5.28;;
62654;SDS011;48717;55.556;37.816;2023-06-26T07:09:04;8.23;;;6.05;;
62654;SDS011;48717;55.556;37.816;2023-06-26T07:11:33;6.47;;;5.90;;
62654;SDS011;48717;55.556;37.816;2023-06-26T07:14:00;7.80;;;5.55;;
62654;SDS011;48717;55.556;37.816;2023-06-26T07:16:27;7.70;;;5.85;;
62654;SDS011;48717;55.556;37.816;2023-06-26T07:18:55;9.70;;;6.20;;
62654;SDS011;48717;55.556;37.816;2023-06-26T07:21:22;7.25;;;6.15;;
62654;SDS011;48717;55.556;37.816;2023-06-26T07:23:52;9.43;;;5.55;;
62654;SDS011;48717;55.556;37.816;2023-06-26T07:26:19;24.27;;;5.50;;
62654;SDS011;48717;55.556;37.816;2023-06-26T07:29:05;8.25;;;5.85;;
62654;SDS011;48717;55.556;37.816;2023-06-26T07:31:33;7.57;;;5.38;;
62654;SDS011;48717;55.556;37.816;2023-06-26T07:34:00;6.47;;;5.43;;
62654;SDS011;48717;55.556;37.816;2023-06-26T07:36:28;8.93;;;5.00;;
62654;SDS011;48717;55.556;37.816;2023-06-26T07:38:55;7.05;;;5.38;;
62654;SDS011;48717;55.556;37.816;2023-06-26T07:41:22;5.20;;;4.70;;
62654;SDS011;48717;55.556;37.816;2023-06-26T07:43:49;6.43;;;5.55;;
62654;SDS011;48717;55.556;37.816;2023-06-26T07:46:16;7.72;;;5.50;;
62654;SDS011;48717;55.556;37.816;2023-06-26T07:48:43;8.85;;;5.15;;
62654;SDS011;48717;55.556;37.816;2023-06-26T07:51:10;5.00;;;4.60;;
62654;SDS011;48717;55.556;37.816;2023-06-26T07:53:38;7.25;;;4.30;;
62654;SDS011;48717;55.556;37.816;2023-06-26T07:56:05;5.13;;;4.63;;
62654;SDS011;48717;55.556;37.816;2023-06-26T07:58:33;10.02;;;4.68;;
62654;SDS011;48717;55.556;37.816;2023-06-26T08:01:00;6.95;;;5.13;;
62654;SDS011;48717;55.556;37.816;2023-06-26T08:03:27;7.38;;;5.15;;
62654;SDS011;48717;55.556;37.816;2023-06-26T08:06:01;5.47;;;4.97;;
62654;SDS011;48717;55.556;37.816;2023-06-26T08:08:30;8.88;;;5.05;;
62654;SDS011;48717;55.556;37.816;2023-06-26T08:10:57;8.10;;;5.43;;
62654;SDS011;48717;55.556;37.816;2023-06-26T08:13:24;6.85;;;5.10;;
62654;SDS011;48717;55.556;37.816;2023-06-26T08:15:52;5.95;;;5.40;;
62654;SDS011;48717;55.556;37.816;2023-06-26T08:18:19;6.88;;;5.22;;
62654;SDS011;48717;55.556;37.816;2023-06-26T08:20:46;7.13;;;5.10;;
62654;SDS011;48717;55.556;37.816;2023-06-26T08:23:13;5.72;;;5.13;;
62654;SDS011;48717;55.556;37.816;2023-06-26T08:25:40;9.65;;;5.30;;
62654;SDS011;48717;55.556;37.816;2023-06-26T08:28:07;8.23;;;5.47;;
62654;SDS011;48717;55.556;37.816;2023-06-26T08:30:35;7.00;;;6.30;;
62654;SDS011;48717;55.556;37.816;2023-06-26T08:33:02;8.48;;;5.78;;
62654;SDS011;48717;55.556;37.816;2023-06-26T08:35:30;7.93;;;5.70;;
62654;SDS011;48717;55.556;37.816;2023-06-26T08:37:57;7.22;;;5.72;;
62654;SDS011;48717;55.556;37.816;2023-06-26T08:40:24;9.50;;;5.88;;
62654;SDS011;48717;55.556;37.816;2023-06-26T08:42:52;6.57;;;5.88;;
62654;SDS011;48717;55.556;37.816;2023-06-26T08:45:20;12.13;;;6.00;;
62654;SDS011;48717;55.556;37.816;2023-06-26T08:47:47;9.95;;;5.80;;
62654;SDS011;48717;55.556;37.816;2023-06-26T08:50:19;7.65;;;5.63;;
62654;SDS011;48717;55.556;37.816;2023-06-26T08:52:53;11.68;;;5.93;;
62654;SDS011;48717;55.556;37.816;2023-06-26T08:55:23;8.02;;;5.45;;
62654;SDS011;48717;55.556;37.816;2023-06-26T08:57:53;10.90;;;5.75;;
62654;SDS011;48717;55.556;37.816;2023-06-26T09:00:20;7.65;;;6.10;;
62654;SDS011;48717;55.556;37.816;2023-06-26T09:02:48;7.38;;;5.75;;
62654;SDS011;48717;55.556;37.816;2023-06-26T09:05:15;9.18;;;6.35;;
62654;SDS011;48717;55.556;37.816;2023-06-26T09:07:42;8.60;;;6.00;;
62654;SDS011;48717;55.556;37.816;2023-06-26T09:10:10;7.00;;;5.82;;
62654;SDS011;48717;55.556;37.816;2023-06-26T09:12:37;7.20;;;6.15;;
62654;SDS011;48717;55.556;37.816;2023-06-26T09:15:08;7.35;;;5.30;;
62654;SDS011;48717;55.556;37.816;2023-06-26T09:17:38;7.30;;;6.00;;
62654;SDS011;48717;55.556;37.816;2023-06-26T09:20:08;7.72;;;5.82;;
62654;SDS011;48717;55.556;37.816;2023-06-26T09:22:37;6.88;;;5.63;;
62654;SDS011;48717;55.556;37.816;2023-06-26T09:25:05;6.07;;;5.40;;
62654;SDS011;48717;55.556;37.816;2023-06-26T09:27:33;6.50;;;5.50;;
62654;SDS011;48717;55.556;37.816;2023-06-26T09:30:02;6.40;;;5.60;;
62654;SDS011;48717;55.556;37.816;2023-06-26T09:32:31;8.32;;;5.40;;
62654;SDS011;48717;55.556;37.816;2023-06-26T09:35:02;7.97;;;5.30;;
62654;SDS011;48717;55.556;37.816;2023-06-26T09:37:32;6.30;;;5.68;;
62654;SDS011;48717;55.556;37.816;2023-06-26T09:39:59;8.05;;;5.90;;
62654;SDS011;48717;55.556;37.816;2023-06-26T09:42:27;6.30;;;5.70;;
62654;SDS011;48717;55.556;37.816;2023-06-26T09:44:55;10.02;;;6.07;;
62654;SDS011;48717;55.556;37.816;2023-06-26T09:47:23;6.88;;;6.07;;
62654;SDS011;48717;55.556;37.816;2023-06-26T09:49:51;7.80;;;5.82;;
62654;SDS011;48717;55.556;37.816;2023-06-26T09:52:21;7.63;;;5.63;;
62654;SDS011;48717;55.556;37.816;2023-06-26T09:55:06;7.38;;;5.50;;
62654;SDS011;48717;55.556;37.816;2023-06-26T09:57:35;8.02;;;5.70;;
62654;SDS011;48717;55.556;37.816;2023-06-26T10:00:02;7.32;;;5.55;;
62654;SDS011;48717;55.556;37.816;2023-06-26T10:02:38;7.40;;;5.28;;
62654;SDS011;48717;55.556;37.816;2023-06-26T10:05:06;7.88;;;5.43;;
62654;SDS011;48717;55.556;37.816;2023-06-26T10:07:33;6.63;;;5.13;;
62654;SDS011;48717;55.556;37.816;2023-06-26T10:10:02;6.22;;;5.07;;
62654;SDS011;48717;55.556;37.816;2023-06-26T10:12:32;6.70;;;5.05;;
62654;SDS011;48717;55.556;37.816;2023-06-26T10:15:00;6.05;;;5.18;;
62654;SDS011;48717;55.556;37.816;2023-06-26T10:17:34;5.30;;;4.80;;
62654;SDS011;48717;55.556;37.816;2023-06-26T10:20:05;7.68;;;5.15;;
62654;SDS011;48717;55.556;37.816;2023-06-26T10:22:45;6.85;;;5.10;;
62654;SDS011;48717;55.556;37.816;2023-06-26T10:25:18;8.10;;;5.75;;
62654;SDS011;48717;55.556;37.816;2023-06-26T10:27:54;8.38;;;5.88;;
62654;SDS011;48717;55.556;37.816;2023-06-26T10:30:28;7.40;;;6.10;;
62654;SDS011;48717;55.556;37.816;2023-06-26T10:33:00;6.25;;;5.50;;
62654;SDS011;48717;55.556;37.816;2023-06-26T10:35:30;6.45;;;5.28;;
62654;SDS011;48717;55.556;37.816;2023-06-26T10:38:01;8.60;;;5.80;;
62654;SDS011;48717;55.556;37.816;2023-06-26T10:40:40;7.15;;;5.40;;
62654;SDS011;48717;55.556;37.816;2023-06-26T10:43:12;6.88;;;5.65;;
62654;SDS011;48717;55.556;37.816;2023-06-26T10:45:47;7.30;;;5.47;;
62654;SDS011;48717;55.556;37.816;2023-06-26T10:48:22;8.23;;;5.22;;
62654;SDS011;48717;55.556;37.816;2023-06-26T10:50:55;6.82;;;5.60;;
62654;SDS011;48717;55.556;37.816;2023-06-26T10:53:23;6.07;;;5.47;;
62654;SDS011;48717;55.556;37.816;2023-06-26T10:58:28;7.53;;;5.80;;
62654;SDS011;48717;55.556;37.816;2023-06-26T11:09:06;7.72;;;5.50;;
62654;SDS011;48717;55.556;37.816;2023-06-26T11:14:22;9.27;;;5.47;;
62654;SDS011;48717;55.556;37.816;2023-06-26T11:16:50;7.23;;;5.47;;
62654;SDS011;48717;55.556;37.816;2023-06-26T11:19:18;9.43;;;5.53;;
62654;SDS011;48717;55.556;37.816;2023-06-26T11:21:46;9.50;;;5.70;;
62654;SDS011;48717;55.556;37.816;2023-06-26T11:24:14;7.57;;;5.38;;
62654;SDS011;48717;55.556;37.816;2023-06-26T11:26:42;7.00;;;5.45;;
62654;SDS011;48717;55.556;37.816;2023-06-26T11:29:10;6.72;;;5.65;;
62654;SDS011;48717;55.556;37.816;2023-06-26T11:31:39;8.03;;;5.40;;
62654;SDS011;48717;55.556;37.816;2023-06-26T11:34:09;5.85;;;5.10;;
62654;SDS011;48717;55.556;37.816;2023-06-26T11:36:40;6.10;;;5.30;;
62654;SDS011;48717;55.556;37.816;2023-06-26T11:39:09;7.50;;;5.43;;
62654;SDS011;48717;55.556;37.816;2023-06-26T11:41:38;5.57;;;5.00;;
62654;SDS011;48717;55.556;37.816;2023-06-26T11:44:07;7.47;;;5.10;;
62654;SDS011;48717;55.556;37.816;2023-06-26T11:46:37;7.15;;;4.90;;
62654;SDS011;48717;55.556;37.816;2023-06-26T11:49:05;5.55;;;4.88;;
62654;SDS011;48717;55.556;37.816;2023-06-26T11:51:33;9.60;;;5.13;;
62654;SDS011;48717;55.556;37.816;2023-06-26T11:54:03;5.45;;;4.88;;
62654;SDS011;48717;55.556;37.816;2023-06-26T11:56:31;6.90;;;5.00;;
62654;SDS011;48717;55.556;37.816;2023-06-26T11:58:59;6.78;;;4.85;;
62654;SDS011;48717;55.556;37.816;2023-06-26T12:01:36;6.40;;;4.70;;
62654;SDS011;48717;55.556;37.816;2023-06-26T12:04:06;5.75;;;4.80;;
62654;SDS011;48717;55.556;37.816;2023-06-26T12:06:36;4.82;;;4.43;;
62654;SDS011;48717;55.556;37.816;2023-06-26T12:09:09;4.68;;;4.20;;
62654;SDS011;48717;55.556;37.816;2023-06-26T12:11:39;4.90;;;4.40;;
62654;SDS011;48717;55.556;37.816;2023-06-26T12:14:09;4.97;;;4.15;;
62654;SDS011;48717;55.556;37.816;2023-06-26T12:16:37;4.93;;;4.37;;
62654;SDS011;48717;55.556;37.816;2023-06-26T12:19:06;4.43;;;4.03;;
62654;SDS011;48717;55.556;37.816;2023-06-26T12:24:05;5.15;;;4.65;;
62654;SDS011;48717;55.556;37.816;2023-06-26T12:26:34;5.35;;;4.90;;
62654;SDS011;48717;55.556;37.816;2023-06-26T12:29:12;5.60;;;4.25;;
62654;SDS011;48717;55.556;37.816;2023-06-26T12:31:40;4.85;;;4.38;;
62654;SDS011;48717;55.556;37.816;2023-06-26T12:34:13;6.38;;;4.57;;
62654;SDS011;48717;55.556;37.816;2023-06-26T12:36:44;7.65;;;6.18;;
62654;SDS011;48717;55.556;37.816;2023-06-26T12:39:15;6.47;;;4.90;;
62654;SDS011;48717;55.556;37.816;2023-06-26T12:41:54;5.65;;;5.05;;
62654;SDS011;48717;55.556;37.816;2023-06-26T12:44:25;5.15;;;4.70;;
62654;SDS011;48717;55.556;37.816;2023-06-26T12:46:54;6.60;;;4.97;;
62654;SDS011;48717;55.556;37.816;2023-06-26T12:49:36;5.85;;;4.65;;
62654;SDS011;48717;55.556;37.816;2023-06-26T12:52:05;5.22;;;4.53;;
62654;SDS011;48717;55.556;37.816;2023-06-26T12:54:37;7.13;;;5.03;;
62654;SDS011;48717;55.556;37.816;2023-06-26T12:57:06;7.28;;;4.78;;
62654;SDS011;48717;55.556;37.816;2023-06-26T12:59:35;6.63;;;5.60;;
62654;SDS011;48717;55.556;37.816;2023-06-26T13:04:31;5.57;;;5.00;;
62654;SDS011;48717;55.556;37.816;2023-06-26T13:06:59;6.30;;;5.68;;
62654;SDS011;48717;55.556;37.816;2023-06-26T13:09:26;5.90;;;5.30;;
62654;SDS011;48717;55.556;37.816;2023-06-26T13:12:00;6.25;;;5.65;;
62654;SDS011;48717;55.556;37.816;2023-06-26T13:14:30;6.03;;;5.07;;
62654;SDS011;48717;55.556;37.816;2023-06-26T13:16:58;8.10;;;4.90;;
62654;SDS011;48717;55.556;37.816;2023-06-26T13:19:25;6.63;;;4.70;;
62654;SDS011;48717;55.556;37.816;2023-06-26T13:21:52;5.45;;;4.68;;
62654;SDS011;48717;55.556;37.816;2023-06-26T13:24:19;5.30;;;4.70;;
62654;SDS011;48717;55.556;37.816;2023-06-26T13:26:46;9.88;;;4.40;;
62654;SDS011;48717;55.556;37.816;2023-06-26T13:29:13;6.97;;;5.47;;
62654;SDS011;48717;55.556;37.816;2023-06-26T13:31:40;5.80;;;5.20;;
62654;SDS011;48717;55.556;37.816;2023-06-26T13:34:08;6.15;;;5.40;;
62654;SDS011;48717;55.556;37.816;2023-06-26T13:36:35;5.65;;;5.15;;
62654;SDS011;48717;55.556;37.816;2023-06-26T13:39:02;6.07;;;5.28;;
62654;SDS011;48717;55.556;37.816;2023-06-26T13:41:30;8.00;;;5.45;;
62654;SDS011;48717;55.556;37.816;2023-06-26T13:43:57;7.63;;;5.53;;
62654;SDS011;48717;55.556;37.816;2023-06-26T13:46:43;7.05;;;5.63;;
62654;SDS011;48717;55.556;37.816;2023-06-26T13:49:10;15.20;;;5.35;;
62654;SDS011;48717;55.556;37.816;2023-06-26T13:51:37;5.70;;;5.10;;
62654;SDS011;48717;55.556;37.816;2023-06-26T13:54:04;9.07;;;6.25;;
62654;SDS011;48717;55.556;37.816;2023-06-26T13:56:31;7.18;;;5.32;;
62654;SDS011;48717;55.556;37.816;2023-06-26T13:58:59;6.35;;;5.18;;
62654;SDS011;48717;55.556;37.816;2023-06-26T14:01:27;6.50;;;5.80;;
62654;SDS011;48717;55.556;37.816;2023-06-26T14:03:54;7.07;;;5.32;;
62654;SDS011;48717;55.556;37.816;2023-06-26T14:06:21;14.05;;;5.95;;
62654;SDS011;48717;55.556;37.816;2023-06-26T14:08:48;9.48;;;5.90;;
62654;SDS011;48717;55.556;37.816;2023-06-26T14:11:15;6.07;;;5.47;;
62654;SDS011;48717;55.556;37.816;2023-06-26T14:13:43;7.00;;;5.32;;
62654;SDS011;48717;55.556;37.816;2023-06-26T14:16:10;10.13;;;5.55;;
62654;SDS011;48717;55.556;37.816;2023-06-26T14:18:38;7.63;;;5.40;;
62654;SDS011;48717;55.556;37.816;2023-06-26T14:21:05;7.32;;;5.00;;
62654;SDS011;48717;55.556;37.816;2023-06-26T14:23:32;7.13;;;5.50;;
62654;SDS011;48717;55.556;37.816;2023-06-26T14:25:59;8.68;;;5.00;;
62654;SDS011;48717;55.556;37.816;2023-06-26T14:28:26;7.35;;;5.05;;
62654;SDS011;48717;55.556;37.816;2023-06-26T14:30:54;7.05;;;5.35;;
62654;SDS011;48717;55.556;37.816;2023-06-26T14:33:21;5.90;;;5.00;;
62654;SDS011;48717;55.556;37.816;2023-06-26T14:35:48;6.00;;;5.10;;
62654;SDS011;48717;55.556;37.816;2023-06-26T14:38:16;6.68;;;5.10;;
62654;SDS011;48717;55.556;37.816;2023-06-26T14:40:43;8.18;;;5.35;;
62654;SDS011;48717;55.556;37.816;2023-06-26T14:43:10;7.05;;;5.18;;
62654;SDS011;48717;55.556;37.816;2023-06-26T14:45:38;6.25;;;5.57;;
62654;SDS011;48717;55.556;37.816;2023-06-26T14:48:06;8.63;;;5.57;;
62654;SDS011;48717;55.556;37.816;2023-06-26T14:50:33;7.60;;;5.28;;
62654;SDS011;48717;55.556;37.816;2023-06-26T14:53:00;30.70;;;20.60;;
62654;SDS011;48717;55.556;37.816;2023-06-26T14:55:27;6.88;;;5.90;;
62654;SDS011;48717;55.556;37.816;2023-06-26T14:57:54;8.55;;;5.60;;
62654;SDS011;48717;55.556;37.816;2023-06-26T15:00:21;9.85;;;5.55;;
62654;SDS011;48717;55.556;37.816;2023-06-26T15:02:48;11.00;;;5.70;;